sensor_id;sensor_type;location;lat;lon;timestamp;pressure;altitude;pressure_sealevel;temperature;humidity
69171;BME280;56279;47.902;12.308;2024-01-30T00:01:42;96788.13;;;0.06;86.89
69171;BME280;56279;47.902;12.308;2024-01-30T00:03:43;96790.91;;;0.04;87.65
69171;BME280;56279;47.902;12.308;2024-01-30T00:05:44;96789.13;;;0.05;87.63
69171;BME280;56279;47.902;12.308;2024-01-30T00:07:46;96793.66;;;0.03;87.57
69171;BME280;56279;47.902;12.308;2024-01-30T00:09:47;96792.41;;;-0.02;87.81
69171;BME280;56279;47.902;12.308;2024-01-30T00:11:49;96787.84;;;0.00;87.56
69171;BME280;56279;47.902;12.308;2024-01-30T00:13:50;96797.91;;;0.04;87.48
69171;BME280;56279;47.902;12.308;2024-01-30T00:15:51;96798.53;;;0.06;87.42
69171;BME280;56279;47.902;12.308;2024-01-30T00:17:53;96793.97;;;0.08;86.86
69171;BME280;56279;47.902;12.308;2024-01-30T00:19:54;96788.13;;;0.06;87.55
69171;BME280;56279;47.902;12.308;2024-01-30T00:21:55;96790.09;;;0.04;87.65
69171;BME280;56279;47.902;12.308;2024-01-30T00:23:57;96795.13;;;0.05;87.12
69171;BME280;56279;47.902;12.308;2024-01-30T00:25:58;96789.13;;;0.05;87.54
69171;BME280;56279;47.902;12.308;2024-01-30T00:27:59;96789.28;;;0.03;87.57
69171;BME280;56279;47.902;12.308;2024-01-30T00:30:01;96792.69;;;0.04;87.10
69171;BME280;56279;47.902;12.308;2024-01-30T00:32:02;96790.72;;;0.06;87.07
69171;BME280;56279;47.902;12.308;2024-01-30T00:34:04;96797.38;;;0.08;87.67
69171;BME280;56279;47.902;12.308;2024-01-30T00:36:05;96789.59;;;0.08;87.23
69171;BME280;56279;47.902;12.308;2024-01-30T00:38:07;96796.56;;;0.08;87.39
69171;BME280;56279;47.902;12.308;2024-01-30T00:40:09;96803.38;;;0.09;87.35
69171;BME280;56279;47.902;12.308;2024-01-30T00:42:16;96798.53;;;0.06;88.08
69171;BME280;56279;47.902;12.308;2024-01-30T00:44:17;96799.16;;;0.08;87.56
69171;BME280;56279;47.902;12.308;2024-01-30T00:46:19;96797.03;;;0.11;87.13
69171;BME280;56279;47.902;12.308;2024-01-30T00:48:20;96798.91;;;0.17;87.74
69171;BME280;56279;47.902;12.308;2024-01-30T00:50:21;96807.94;;;0.21;87.12
69171;BME280;56279;47.902;12.308;2024-01-30T00:52:23;96805.00;;;0.24;87.07
69171;BME280;56279;47.902;12.308;2024-01-30T00:54:24;96800.97;;;0.22;87.60
69171;BME280;56279;47.902;12.308;2024-01-30T00:56:25;96803.84;;;0.27;86.89
69171;BME280;56279;47.902;12.308;2024-01-30T00:58:26;96798.13;;;0.31;86.72
69171;BME280;56279;47.902;12.308;2024-01-30T01:00:27;96797.78;;;0.34;87.02
69171;BME280;56279;47.902;12.308;2024-01-30T01:02:30;96797.94;;;0.33;86.73
69171;BME280;56279;47.902;12.308;2024-01-30T01:04:31;96803.31;;;0.31;87.05
69171;BME280;56279;47.902;12.308;2024-01-30T01:06:32;96795.53;;;0.31;87.15
69171;BME280;56279;47.902;12.308;2024-01-30T01:08:33;96798.13;;;0.31;87.19
69171;BME280;56279;47.902;12.308;2024-01-30T01:10:34;96799.75;;;0.32;86.64
69171;BME280;56279;47.902;12.308;2024-01-30T01:12:36;96796.97;;;0.34;86.92
69171;BME280;56279;47.902;12.308;2024-01-30T01:14:37;96794.19;;;0.35;87.34
69171;BME280;56279;47.902;12.308;2024-01-30T01:16:38;96788.31;;;0.41;87.35
69171;BME280;56279;47.902;12.308;2024-01-30T01:18:39;96790.03;;;0.49;87.56
69171;BME280;56279;47.902;12.308;2024-01-30T01:20:41;96787.66;;;0.54;87.43
69171;BME280;56279;47.902;12.308;2024-01-30T01:22:42;96789.72;;;0.58;86.73
69171;BME280;56279;47.902;12.308;2024-01-30T01:24:43;96796.38;;;0.61;86.90
69171;BME280;56279;47.902;12.308;2024-01-30T01:26:45;96792.16;;;0.60;86.70
69171;BME280;56279;47.902;12.308;2024-01-30T01:28:46;96796.28;;;0.54;86.60
69171;BME280;56279;47.902;12.308;2024-01-30T01:30:47;96793.78;;;0.46;86.89
69171;BME280;56279;47.902;12.308;2024-01-30T01:32:49;96786.69;;;0.40;87.08
69171;BME280;56279;47.902;12.308;2024-01-30T01:34:56;96781.69;;;0.39;88.02
69171;BME280;56279;47.902;12.308;2024-01-30T01:36:57;96785.53;;;0.43;88.25
69171;BME280;56279;47.902;12.308;2024-01-30T01:38:58;96778.19;;;0.46;87.83
69171;BME280;56279;47.902;12.308;2024-01-30T01:40:59;96773.78;;;0.47;87.81
69171;BME280;56279;47.902;12.308;2024-01-30T01:43:03;96777.47;;;0.52;87.52
69171;BME280;56279;47.902;12.308;2024-01-30T01:45:04;96778.28;;;0.53;87.85
69171;BME280;56279;47.902;12.308;2024-01-30T01:47:06;96779.88;;;0.54;87.48
69171;BME280;56279;47.902;12.308;2024-01-30T01:49:08;96777.47;;;0.52;87.14
69171;BME280;56279;47.902;12.308;2024-01-30T01:51:09;96776.84;;;0.50;88.02
69171;BME280;56279;47.902;12.308;2024-01-30T01:53:12;96777.03;;;0.49;87.44
69171;BME280;56279;47.902;12.308;2024-01-30T01:55:14;96778.19;;;0.46;87.62
69171;BME280;56279;47.902;12.308;2024-01-30T01:57:16;96775.94;;;0.43;88.02
69171;BME280;56279;47.902;12.308;2024-01-30T01:59:18;96769.50;;;0.39;87.84
69171;BME280;56279;47.902;12.308;2024-01-30T02:01:21;96769.03;;;0.36;88.51
69171;BME280;56279;47.902;12.308;2024-01-30T02:03:23;96777.19;;;0.33;87.76
69171;BME280;56279;47.902;12.308;2024-01-30T02:05:24;96771.34;;;0.31;88.25
69171;BME280;56279;47.902;12.308;2024-01-30T02:07:27;96773.31;;;0.29;87.99
69171;BME280;56279;47.902;12.308;2024-01-30T02:09:29;96770.91;;;0.27;88.03
69171;BME280;56279;47.902;12.308;2024-01-30T02:11:30;96765.72;;;0.27;88.60
69171;BME280;56279;47.902;12.308;2024-01-30T02:13:31;96770.56;;;0.30;88.44
69171;BME280;56279;47.902;12.308;2024-01-30T02:15:33;96770.38;;;0.32;88.44
69171;BME280;56279;47.902;12.308;2024-01-30T02:17:34;96762.78;;;0.30;88.77
69171;BME280;56279;47.902;12.308;2024-01-30T02:19:39;96779.16;;;0.31;88.30
69171;BME280;56279;47.902;12.308;2024-01-30T02:21:41;96777.56;;;0.30;88.67
69171;BME280;56279;47.902;12.308;2024-01-30T02:23:46;96770.56;;;0.30;89.16
69171;BME280;56279;47.902;12.308;2024-01-30T02:25:48;96772.16;;;0.31;88.92
69171;BME280;56279;47.902;12.308;2024-01-30T02:27:49;96766.63;;;0.34;89.55
69171;BME280;56279;47.902;12.308;2024-01-30T02:29:50;96772.09;;;0.39;89.58
69171;BME280;56279;47.902;12.308;2024-01-30T02:31:52;96772.72;;;0.41;89.63
69171;BME280;56279;47.902;12.308;2024-01-30T02:33:53;96771.91;;;0.41;89.67
69171;BME280;56279;47.902;12.308;2024-01-30T02:35:54;96780.25;;;0.36;89.71
69171;BME280;56279;47.902;12.308;2024-01-30T02:37:56;96770.91;;;0.27;89.50
69171;BME280;56279;47.902;12.308;2024-01-30T02:39:57;96775.19;;;0.20;89.75
69171;BME280;56279;47.902;12.308;2024-01-30T02:41:58;96774.47;;;0.12;90.40
69171;BME280;56279;47.902;12.308;2024-01-30T02:44:00;96774.81;;;0.09;90.41
69171;BME280;56279;47.902;12.308;2024-01-30T02:46:01;96769.63;;;0.09;90.80
69171;BME280;56279;47.902;12.308;2024-01-30T02:48:02;96766.22;;;0.08;90.59
69171;BME280;56279;47.902;12.308;2024-01-30T02:50:04;96773.66;;;0.11;90.86
69171;BME280;56279;47.902;12.308;2024-01-30T02:52:07;96775.25;;;0.12;90.87
69171;BME280;56279;47.902;12.308;2024-01-30T02:54:08;96774.00;;;0.08;90.55
69171;BME280;56279;47.902;12.308;2024-01-30T02:56:09;96779.91;;;0.02;90.82
69171;BME280;56279;47.902;12.308;2024-01-30T02:58:11;96770.41;;;-0.06;90.80
69171;BME280;56279;47.902;12.308;2024-01-30T03:00:12;96769.94;;;-0.09;91.26
69171;BME280;56279;47.902;12.308;2024-01-30T03:02:14;96766.72;;;-0.11;91.72
69171;BME280;56279;47.902;12.308;2024-01-30T03:04:15;96771.44;;;-0.15;91.21
69171;BME280;56279;47.902;12.308;2024-01-30T03:06:16;96769.53;;;-0.21;91.33
69171;BME280;56279;47.902;12.308;2024-01-30T03:08:18;96776.88;;;-0.24;91.67
69171;BME280;56279;47.902;12.308;2024-01-30T03:10:19;96773.03;;;-0.28;91.96
69171;BME280;56279;47.902;12.308;2024-01-30T03:12:21;96780.50;;;-0.33;91.91
69171;BME280;56279;47.902;12.308;2024-01-30T03:14:22;96771.44;;;-0.37;92.22
69171;BME280;56279;47.902;12.308;2024-01-30T03:16:24;96772.16;;;-0.43;92.71
69171;BME280;56279;47.902;12.308;2024-01-30T03:18:25;96770.88;;;-0.47;92.73
69171;BME280;56279;47.902;12.308;2024-01-30T03:20:26;96767.03;;;-0.51;92.72
69171;BME280;56279;47.902;12.308;2024-01-30T03:22:27;96767.38;;;-0.54;92.06
69171;BME280;56279;47.902;12.308;2024-01-30T03:24:29;96763.66;;;-0.60;93.37
69171;BME280;56279;47.902;12.308;2024-01-30T03:26:30;96758.66;;;-0.61;92.93
69171;BME280;56279;47.902;12.308;2024-01-30T03:28:31;96763.03;;;-0.62;92.68
69171;BME280;56279;47.902;12.308;2024-01-30T03:30:34;96758.19;;;-0.65;92.88
69171;BME280;56279;47.902;12.308;2024-01-30T03:32:35;96760.16;;;-0.67;92.56
69171;BME280;56279;47.902;12.308;2024-01-30T03:34:36;96751.75;;;-0.69;92.58
69171;BME280;56279;47.902;12.308;2024-01-30T03:36:38;96758.88;;;-0.71;92.78
69171;BME280;56279;47.902;12.308;2024-01-30T03:38:39;96749.66;;;-0.74;92.74
69171;BME280;56279;47.902;12.308;2024-01-30T03:40:40;96755.03;;;-0.75;93.13
69171;BME280;56279;47.902;12.308;2024-01-30T03:42:41;96752.59;;;-0.77;92.84
69171;BME280;56279;47.902;12.308;2024-01-30T03:44:43;96757.78;;;-0.77;92.99
69171;BME280;56279;47.902;12.308;2024-01-30T03:46:44;96757.00;;;-0.77;93.40
69171;BME280;56279;47.902;12.308;2024-01-30T03:48:45;96756.50;;;-0.81;93.17
69171;BME280;56279;47.902;12.308;2024-01-30T03:50:47;96753.47;;;-0.84;93.38
69171;BME280;56279;47.902;12.308;2024-01-30T03:52:48;96754.25;;;-0.84;93.49
69171;BME280;56279;47.902;12.308;2024-01-30T03:54:49;96757.47;;;-0.82;93.15
69171;BME280;56279;47.902;12.308;2024-01-30T03:56:51;96760.06;;;-0.82;93.41
69171;BME280;56279;47.902;12.308;2024-01-30T03:58:52;96761.88;;;-0.82;93.33
69171;BME280;56279;47.902;12.308;2024-01-30T04:00:53;96762.66;;;-0.82;93.45
69171;BME280;56279;47.902;12.308;2024-01-30T04:02:54;96760.25;;;-0.83;93.20
69171;BME280;56279;47.902;12.308;2024-01-30T04:04:56;96758.66;;;-0.84;93.16
69171;BME280;56279;47.902;12.308;2024-01-30T04:06:57;96760.41;;;-0.85;93.53
69171;BME280;56279;47.902;12.308;2024-01-30T04:08:59;96761.88;;;-0.82;93.31
69171;BME280;56279;47.902;12.308;2024-01-30T04:11:04;96754.72;;;-0.80;93.10
69171;BME280;56279;47.902;12.308;2024-01-30T04:13:06;96764.28;;;-0.81;93.62
69171;BME280;56279;47.902;12.308;2024-01-30T04:15:08;96763.47;;;-0.81;93.41
69171;BME280;56279;47.902;12.308;2024-01-30T04:17:09;96754.88;;;-0.82;93.34
69171;BME280;56279;47.902;12.308;2024-01-30T04:19:10;96764.28;;;-0.81;93.42
69171;BME280;56279;47.902;12.308;2024-01-30T04:21:12;96763.47;;;-0.81;93.68
69171;BME280;56279;47.902;12.308;2024-01-30T04:23:13;96758.47;;;-0.83;93.84
69171;BME280;56279;47.902;12.308;2024-01-30T04:25:14;96765.09;;;-0.80;93.41
69171;BME280;56279;47.902;12.308;2024-01-30T04:27:15;96759.91;;;-0.80;93.70
69171;BME280;56279;47.902;12.308;2024-01-30T04:29:17;96761.69;;;-0.81;93.37
69171;BME280;56279;47.902;12.308;2024-01-30T04:31:18;96765.44;;;-0.83;93.63
69171;BME280;56279;47.902;12.308;2024-01-30T04:33:19;96760.41;;;-0.85;93.63
69171;BME280;56279;47.902;12.308;2024-01-30T04:35:21;96764.63;;;-0.84;93.97
69171;BME280;56279;47.902;12.308;2024-01-30T04:37:24;96769.00;;;-0.84;93.56
69171;BME280;56279;47.902;12.308;2024-01-30T04:39:26;96761.25;;;-0.84;93.91
69171;BME280;56279;47.902;12.308;2024-01-30T04:41:27;96765.44;;;-0.83;93.84
69171;BME280;56279;47.902;12.308;2024-01-30T04:43:32;96764.47;;;-0.82;93.49
69171;BME280;56279;47.902;12.308;2024-01-30T04:45:33;96762.19;;;-0.85;93.75
69171;BME280;56279;47.902;12.308;2024-01-30T04:47:34;96767.56;;;-0.87;93.63
69171;BME280;56279;47.902;12.308;2024-01-30T04:49:36;96771.13;;;-0.88;94.03
69171;BME280;56279;47.902;12.308;2024-01-30T04:51:37;96770.31;;;-0.88;94.22
69171;BME280;56279;47.902;12.308;2024-01-30T04:53:38;96765.31;;;-0.90;94.13
69171;BME280;56279;47.902;12.308;2024-01-30T04:55:40;96769.66;;;-0.90;94.55
69171;BME280;56279;47.902;12.308;2024-01-30T04:57:42;96767.91;;;-0.90;94.15
69171;BME280;56279;47.902;12.308;2024-01-30T04:59:43;96769.66;;;-0.90;94.65
69171;BME280;56279;47.902;12.308;2024-01-30T05:01:44;96773.53;;;-0.86;94.22
69171;BME280;56279;47.902;12.308;2024-01-30T05:03:45;96763.97;;;-0.86;94.43
69171;BME280;56279;47.902;12.308;2024-01-30T05:05:46;96764.47;;;-0.82;94.30
69171;BME280;56279;47.902;12.308;2024-01-30T05:07:48;96767.34;;;-0.77;94.20
69171;BME280;56279;47.902;12.308;2024-01-30T05:09:49;96763.59;;;-0.75;94.12
69171;BME280;56279;47.902;12.308;2024-01-30T05:11:50;96770.06;;;-0.71;94.22
69171;BME280;56279;47.902;12.308;2024-01-30T05:13:52;96770.38;;;-0.65;94.01
69171;BME280;56279;47.902;12.308;2024-01-30T05:15:53;96772.59;;;-0.62;93.96
69171;BME280;56279;47.902;12.308;2024-01-30T05:20:21;96767.53;;;-0.56;93.77
69171;BME280;56279;47.902;12.308;2024-01-30T05:22:24;96769.78;;;-0.53;93.88
69171;BME280;56279;47.902;12.308;2024-01-30T05:24:29;96777.41;;;-0.51;93.52
69171;BME280;56279;47.902;12.308;2024-01-30T05:26:33;96779.19;;;-0.52;94.10
69171;BME280;56279;47.902;12.308;2024-01-30T05:28:34;96787.91;;;-0.53;94.34
69171;BME280;56279;47.902;12.308;2024-01-30T05:30:35;96784.69;;;-0.55;94.04
69171;BME280;56279;47.902;12.308;2024-01-30T05:32:38;96783.25;;;-0.57;94.14
69171;BME280;56279;47.902;12.308;2024-01-30T05:34:41;96787.47;;;-0.56;93.96
69171;BME280;56279;47.902;12.308;2024-01-30T05:36:42;96792.81;;;-0.58;93.75
69171;BME280;56279;47.902;12.308;2024-01-30T05:38:49;96787.81;;;-0.59;94.17
69171;BME280;56279;47.902;12.308;2024-01-30T05:40:50;96793.00;;;-0.59;94.54
69171;BME280;56279;47.902;12.308;2024-01-30T05:42:52;96787.47;;;-0.56;94.10
69171;BME280;56279;47.902;12.308;2024-01-30T05:44:53;96787.91;;;-0.53;94.10
69171;BME280;56279;47.902;12.308;2024-01-30T05:46:54;96782.06;;;-0.47;94.51
69171;BME280;56279;47.902;12.308;2024-01-30T05:48:56;96778.16;;;-0.43;94.35
69171;BME280;56279;47.902;12.308;2024-01-30T05:50:58;96785.22;;;-0.37;93.88
69171;BME280;56279;47.902;12.308;2024-01-30T05:53:00;96787.78;;;-0.29;93.80
69171;BME280;56279;47.902;12.308;2024-01-30T05:55:02;96786.44;;;-0.25;93.49
69171;BME280;56279;47.902;12.308;2024-01-30T05:57:05;96786.63;;;-0.26;93.63
69171;BME280;56279;47.902;12.308;2024-01-30T05:59:11;96790.38;;;-0.29;94.00
69171;BME280;56279;47.902;12.308;2024-01-30T06:01:13;96787.59;;;-0.27;93.77
69171;BME280;56279;47.902;12.308;2024-01-30T06:03:16;96785.81;;;-0.27;93.94
69171;BME280;56279;47.902;12.308;2024-01-30T06:05:21;96782.50;;;-0.21;94.08
69171;BME280;56279;47.902;12.308;2024-01-30T06:07:23;96787.66;;;-0.13;94.18
69171;BME280;56279;47.902;12.308;2024-01-30T06:09:25;96782.38;;;-0.05;93.49
69171;BME280;56279;47.902;12.308;2024-01-30T06:11:30;96779.72;;;0.04;93.28
69171;BME280;56279;47.902;12.308;2024-01-30T06:13:31;96775.44;;;0.11;93.08
69171;BME280;56279;47.902;12.308;2024-01-30T06:15:35;96780.75;;;0.17;93.32
69171;BME280;56279;47.902;12.308;2024-01-30T06:17:37;96780.84;;;0.24;93.41
69171;BME280;56279;47.902;12.308;2024-01-30T06:19:41;96771.06;;;0.26;92.91
69171;BME280;56279;47.902;12.308;2024-01-30T06:21:45;96775.94;;;0.29;93.02
69171;BME280;56279;47.902;12.308;2024-01-30T06:23:46;96781.31;;;0.27;92.54
69171;BME280;56279;47.902;12.308;2024-01-30T06:25:47;96770.91;;;0.27;93.15
69171;BME280;56279;47.902;12.308;2024-01-30T06:27:52;96768.47;;;0.26;93.42
69171;BME280;56279;47.902;12.308;2024-01-30T06:29:54;96774.31;;;0.28;93.32
69171;BME280;56279;47.902;12.308;2024-01-30T06:31:55;96778.53;;;0.29;93.16
69171;BME280;56279;47.902;12.308;2024-01-30T06:33:56;96772.50;;;0.28;93.66
69171;BME280;56279;47.902;12.308;2024-01-30T06:35:58;96779.34;;;0.29;92.81
69171;BME280;56279;47.902;12.308;2024-01-30T06:38:00;96780.78;;;0.32;93.60
69171;BME280;56279;47.902;12.308;2024-01-30T06:40:02;96781.59;;;0.32;92.85
69171;BME280;56279;47.902;12.308;2024-01-30T06:42:07;96783.38;;;0.32;92.91
69171;BME280;56279;47.902;12.308;2024-01-30T06:44:10;96785.69;;;0.27;93.02
69171;BME280;56279;47.902;12.308;2024-01-30T06:46:12;96795.78;;;0.22;93.19
69171;BME280;56279;47.902;12.308;2024-01-30T06:48:14;96798.09;;;0.17;92.72
69171;BME280;56279;47.902;12.308;2024-01-30T06:50:15;96806.41;;;0.12;93.00
69171;BME280;56279;47.902;12.308;2024-01-30T06:52:16;96806.13;;;0.07;93.43
69171;BME280;56279;47.902;12.308;2024-01-30T06:54:18;96814.09;;;0.06;93.98
69171;BME280;56279;47.902;12.308;2024-01-30T06:56:20;96803.38;;;0.09;93.93
69171;BME280;56279;47.902;12.308;2024-01-30T06:58:21;96799.44;;;0.13;93.72
69171;BME280;56279;47.902;12.308;2024-01-30T07:00:23;96794.19;;;0.21;93.82
69171;BME280;56279;47.902;12.308;2024-01-30T07:02:25;96804.81;;;0.26;92.96
69171;BME280;56279;47.902;12.308;2024-01-30T07:04:26;96800.44;;;0.26;92.63
69171;BME280;56279;47.902;12.308;2024-01-30T07:06:28;96808.41;;;0.25;92.55
69171;BME280;56279;47.902;12.308;2024-01-30T07:08:29;96812.34;;;0.21;93.33
69171;BME280;56279;47.902;12.308;2024-01-30T07:10:30;96818.69;;;0.18;93.00
69171;BME280;56279;47.902;12.308;2024-01-30T07:12:35;96813.41;;;0.12;93.53
69171;BME280;56279;47.902;12.308;2024-01-30T07:14:36;96814.56;;;0.09;93.58
69171;BME280;56279;47.902;12.308;2024-01-30T07:16:37;96816.00;;;0.12;93.30
69171;BME280;56279;47.902;12.308;2024-01-30T07:18:39;96815.81;;;0.13;93.56
69171;BME280;56279;47.902;12.308;2024-01-30T07:20:42;96820.47;;;0.18;93.68
69171;BME280;56279;47.902;12.308;2024-01-30T07:22:51;96813.94;;;0.22;94.00
69171;BME280;56279;47.902;12.308;2024-01-30T07:24:53;96821.22;;;0.26;93.38
69171;BME280;56279;47.902;12.308;2024-01-30T07:26:54;96820.41;;;0.26;93.22
69171;BME280;56279;47.902;12.308;2024-01-30T07:28:55;96822.03;;;0.27;93.25
69171;BME280;56279;47.902;12.308;2024-01-30T07:30:58;96819.25;;;0.28;93.11
69171;BME280;56279;47.902;12.308;2024-01-30T07:33:00;96817.31;;;0.30;93.15
69171;BME280;56279;47.902;12.308;2024-01-30T07:35:01;96824.56;;;0.35;92.96
69171;BME280;56279;47.902;12.308;2024-01-30T07:37:03;96829.38;;;0.38;93.05
69171;BME280;56279;47.902;12.308;2024-01-30T07:39:04;96823.03;;;0.40;93.07
69171;BME280;56279;47.902;12.308;2024-01-30T07:41:06;96816.06;;;0.41;92.75
69171;BME280;56279;47.902;12.308;2024-01-30T07:43:07;96818.31;;;0.44;93.18
69171;BME280;56279;47.902;12.308;2024-01-30T07:45:09;96819.75;;;0.46;92.81
69171;BME280;56279;47.902;12.308;2024-01-30T07:47:10;96824.75;;;0.48;93.19
69171;BME280;56279;47.902;12.308;2024-01-30T07:49:12;96821.97;;;0.49;93.54
69171;BME280;56279;47.902;12.308;2024-01-30T07:51:15;96821.63;;;0.52;93.07
69171;BME280;56279;47.902;12.308;2024-01-30T07:53:16;96821.44;;;0.54;93.05
69171;BME280;56279;47.902;12.308;2024-01-30T07:55:17;96827.91;;;0.58;92.79
69171;BME280;56279;47.902;12.308;2024-01-30T07:57:20;96820.13;;;0.58;92.26
69171;BME280;56279;47.902;12.308;2024-01-30T07:59:21;96828.53;;;0.60;92.54
69171;BME280;56279;47.902;12.308;2024-01-30T08:01:26;96832.09;;;0.59;93.02
69171;BME280;56279;47.902;12.308;2024-01-30T08:03:30;96823.97;;;0.62;92.47
69171;BME280;56279;47.902;12.308;2024-01-30T08:05:32;96833.19;;;0.64;92.95
69171;BME280;56279;47.902;12.308;2024-01-30T08:07:33;96832.84;;;0.67;92.64
69171;BME280;56279;47.902;12.308;2024-01-30T08:09:35;96830.06;;;0.69;92.84
69171;BME280;56279;47.902;12.308;2024-01-30T08:11:38;96835.06;;;0.70;92.80
69171;BME280;56279;47.902;12.308;2024-01-30T08:13:41;96833.47;;;0.69;92.04
69171;BME280;56279;47.902;12.308;2024-01-30T08:15:43;96836.69;;;0.72;92.12
69171;BME280;56279;47.902;12.308;2024-01-30T08:17:45;96840.09;;;0.72;92.98
69171;BME280;56279;47.902;12.308;2024-01-30T08:19:47;96840.72;;;0.74;92.29
69171;BME280;56279;47.902;12.308;2024-01-30T08:21:48;96835.53;;;0.74;92.12
69171;BME280;56279;47.902;12.308;2024-01-30T08:23:50;96840.53;;;0.76;91.91
69171;BME280;56279;47.902;12.308;2024-01-30T08:25:51;96837.75;;;0.77;92.74
69171;BME280;56279;47.902;12.308;2024-01-30T08:27:53;96835.63;;;0.81;91.76
69171;BME280;56279;47.902;12.308;2024-01-30T08:29:57;96844.84;;;0.83;92.66
69171;BME280;56279;47.902;12.308;2024-01-30T08:31:59;96839.66;;;0.83;92.36
69171;BME280;56279;47.902;12.308;2024-01-30T08:34:01;96842.69;;;0.87;92.32
69171;BME280;56279;47.902;12.308;2024-01-30T08:36:02;96840.56;;;0.90;92.21
69171;BME280;56279;47.902;12.308;2024-01-30T08:38:04;96838.22;;;0.95;92.34
69171;BME280;56279;47.902;12.308;2024-01-30T08:40:06;96836.69;;;1.01;91.68
69171;BME280;56279;47.902;12.308;2024-01-30T08:42:10;96836.16;;;1.05;92.12
69171;BME280;56279;47.902;12.308;2024-01-30T08:44:11;96833.66;;;1.12;91.81
69171;BME280;56279;47.902;12.308;2024-01-30T08:46:13;96838.13;;;1.18;91.65
69171;BME280;56279;47.902;12.308;2024-01-30T08:48:14;96842.78;;;1.22;91.74
69171;BME280;56279;47.902;12.308;2024-01-30T08:50:15;96843.03;;;1.27;91.68
69171;BME280;56279;47.902;12.308;2024-01-30T08:52:17;96840.88;;;1.31;91.86
69171;BME280;56279;47.902;12.308;2024-01-30T08:54:21;96838.53;;;1.36;91.14
69171;BME280;56279;47.902;12.308;2024-01-30T08:56:22;96844.00;;;1.41;91.28
69171;BME280;56279;47.902;12.308;2024-01-30T08:58:25;96839.06;;;1.46;91.43
69171;BME280;56279;47.902;12.308;2024-01-30T09:00:26;96839.34;;;1.51;91.09
69171;BME280;56279;47.902;12.308;2024-01-30T09:02:28;96845.41;;;1.58;90.76
69171;BME280;56279;47.902;12.308;2024-01-30T09:04:30;96841.88;;;1.66;90.97
69171;BME280;56279;47.902;12.308;2024-01-30T09:06:31;96848.97;;;1.72;90.89
69171;BME280;56279;47.902;12.308;2024-01-30T09:08:33;96843.41;;;1.75;90.83
69171;BME280;56279;47.902;12.308;2024-01-30T09:10:34;96848.06;;;1.79;90.83
69171;BME280;56279;47.902;12.308;2024-01-30T09:12:36;96849.09;;;1.85;90.39
69171;BME280;56279;47.902;12.308;2024-01-30T09:14:38;96847.75;;;1.89;90.59
69171;BME280;56279;47.902;12.308;2024-01-30T09:16:39;96843.41;;;1.96;90.64
69171;BME280;56279;47.902;12.308;2024-01-30T09:18:41;96847.06;;;2.01;90.02
69171;BME280;56279;47.902;12.308;2024-01-30T09:20:43;96852.31;;;2.08;89.82
69171;BME280;56279;47.902;12.308;2024-01-30T09:22:47;96853.19;;;2.15;89.94
69171;BME280;56279;47.902;12.308;2024-01-30T09:24:48;96852.88;;;2.25;89.94
69171;BME280;56279;47.902;12.308;2024-01-30T09:26:52;96856.97;;;2.34;90.16
69171;BME280;56279;47.902;12.308;2024-01-30T09:28:54;96857.06;;;2.40;89.52
69171;BME280;56279;47.902;12.308;2024-01-30T09:30:57;96862.91;;;2.49;89.44
69171;BME280;56279;47.902;12.308;2024-01-30T09:32:59;96862.00;;;2.56;89.51
69171;BME280;56279;47.902;12.308;2024-01-30T09:35:00;96848.81;;;2.64;89.21
69171;BME280;56279;47.902;12.308;2024-01-30T09:37:03;96857.72;;;2.76;88.91
69171;BME280;56279;47.902;12.308;2024-01-30T09:39:04;96855.38;;;2.88;88.95
69171;BME280;56279;47.902;12.308;2024-01-30T09:41:08;96859.44;;;2.97;88.02
69171;BME280;56279;47.902;12.308;2024-01-30T09:43:15;96851.50;;;3.05;88.15
69171;BME280;56279;47.902;12.308;2024-01-30T09:45:18;96854.75;;;3.14;87.97
69171;BME280;56279;47.902;12.308;2024-01-30T09:47:20;96853.78;;;3.21;88.12
69171;BME280;56279;47.902;12.308;2024-01-30T09:49:23;96857.63;;;3.32;88.04
69171;BME280;56279;47.902;12.308;2024-01-30T09:51:26;96851.25;;;3.41;87.27
69171;BME280;56279;47.902;12.308;2024-01-30T09:53:29;96852.91;;;3.48;87.00
69171;BME280;56279;47.902;12.308;2024-01-30T09:55:31;96848.72;;;3.61;87.41
69171;BME280;56279;47.902;12.308;2024-01-30T09:57:36;96852.78;;;3.70;86.76
69171;BME280;56279;47.902;12.308;2024-01-30T09:59:38;96857.63;;;3.79;86.88
69171;BME280;56279;47.902;12.308;2024-01-30T10:01:39;96850.63;;;3.86;86.33
69171;BME280;56279;47.902;12.308;2024-01-30T10:03:41;96849.44;;;3.95;86.21
69171;BME280;56279;47.902;12.308;2024-01-30T10:05:50;96849.44;;;4.02;86.30
69171;BME280;56279;47.902;12.308;2024-01-30T10:07:53;96851.28;;;4.08;86.04
69171;BME280;56279;47.902;12.308;2024-01-30T10:09:57;96853.91;;;4.14;86.07
69171;BME280;56279;47.902;12.308;2024-01-30T10:11:59;96848.28;;;4.24;86.14
69171;BME280;56279;47.902;12.308;2024-01-30T10:14:00;96852.91;;;4.29;85.77
69171;BME280;56279;47.902;12.308;2024-01-30T10:16:02;96847.09;;;4.33;85.66
69171;BME280;56279;47.902;12.308;2024-01-30T10:18:05;96844.69;;;4.38;85.51
69171;BME280;56279;47.902;12.308;2024-01-30T10:20:08;96845.69;;;4.44;85.45
69171;BME280;56279;47.902;12.308;2024-01-30T10:22:11;96844.28;;;4.48;85.47
69171;BME280;56279;47.902;12.308;2024-01-30T10:24:12;96840.25;;;4.52;85.19
69171;BME280;56279;47.902;12.308;2024-01-30T10:26:16;96840.66;;;4.55;84.84
69171;BME280;56279;47.902;12.308;2024-01-30T10:28:21;96840.25;;;4.58;85.11
69171;BME280;56279;47.902;12.308;2024-01-30T10:30:24;96836.63;;;4.66;84.96
69171;BME280;56279;47.902;12.308;2024-01-30T10:32:27;96835.63;;;4.73;84.59
69171;BME280;56279;47.902;12.308;2024-01-30T10:34:30;96835.22;;;4.83;84.66
69171;BME280;56279;47.902;12.308;2024-01-30T10:36:36;96835.41;;;4.95;84.16
69171;BME280;56279;47.902;12.308;2024-01-30T10:38:42;96823.13;;;5.02;83.77
69171;BME280;56279;47.902;12.308;2024-01-30T10:40:45;96825.28;;;5.11;83.64
69171;BME280;56279;47.902;12.308;2024-01-30T10:42:50;96823.06;;;5.21;83.23
69171;BME280;56279;47.902;12.308;2024-01-30T10:45:13;96819.19;;;5.30;82.77
69171;BME280;56279;47.902;12.308;2024-01-30T10:47:18;96815.34;;;5.39;82.24